Time;durP1;ratioP1;P1;durP2;ratioP2;P2;SDS_P1;SDS_P2;PMS_P1;PMS_P2;Temp;Humidity;BMP_temperature;BMP_pressure;BME280_temperature;BME280_humidity;BME280_pressure;Samples;Min_cycle;Max_cycle;Signal;HPM_P1;HPM_P2
2021/12/31 00:05:28;;;;;;;;;;;23.00;35.30;;;;;;5151996;27;20042;-68
2021/12/31 00:07:55;;;;;;;3.75;3.38;;;23.00;35.30;;;;;;5151462;27;20079;-68
2021/12/31 00:10:22;;;;;;;3.83;3.35;;;23.00;35.30;;;;;;5151004;27;20134;-69
2021/12/31 00:12:49;;;;;;;3.47;2.95;;;23.00;35.30;;;;;;5151210;27;20135;-68
2021/12/31 00:15:17;;;;;;;3.60;3.30;;;23.00;35.30;;;;;;5151348;27;20070;-69
2021/12/31 00:21:24;;;;;;;;;;;23.00;35.30;;;;;;5149578;27;20034;-68
2021/12/31 00:23:51;;;;;;;3.35;3.05;;;23.00;35.20;;;;;;5152986;27;19965;-68
2021/12/31 00:26:19;;;;;;;3.20;2.90;;;23.00;35.30;;;;;;5130702;27;20086;-68
2021/12/31 00:28:46;;;;;;;3.22;2.92;;;23.00;35.30;;;;;;5152546;27;20100;-68
2021/12/31 00:31:13;;;;;;;3.50;3.17;;;23.00;35.30;;;;;;5149487;27;20240;-68
2021/12/31 00:36:45;;;;;;;3.33;3.03;;;23.00;35.30;;;;;;5148085;27;20101;-69
2021/12/31 00:39:14;;;;;;;3.70;3.40;;;23.00;35.30;;;;;;5153031;27;20050;-68
2021/12/31 00:41:42;;;;;;;3.40;3.10;;;23.00;35.30;;;;;;5147966;27;20057;-68
2021/12/31 00:44:10;;;;;;;3.55;3.25;;;22.90;35.30;;;;;;5134647;27;20038;-68
2021/12/31 00:46:37;;;;;;;2.85;2.55;;;22.90;35.30;;;;;;5129999;27;20122;-68
2021/12/31 00:49:05;;;;;;;3.10;2.90;;;22.90;35.30;;;;;;5153253;27;20136;-68
2021/12/31 00:51:33;;;;;;;3.10;2.80;;;22.90;35.30;;;;;;5147720;27;20081;-68
2021/12/31 00:54:00;;;;;;;3.88;3.45;;;22.90;35.30;;;;;;5152173;27;20477;-68
2021/12/31 00:56:28;;;;;;;3.22;2.90;;;22.90;35.30;;;;;;5130019;27;20347;-68
2021/12/31 00:59:14;;;;;;;3.20;2.90;;;22.90;35.30;;;;;;5133901;27;20082;-68
2021/12/31 01:01:41;;;;;;;2.72;2.53;;;22.90;35.30;;;;;;5147918;27;20082;-67
2021/12/31 01:04:08;;;;;;;4.00;3.30;;;22.90;35.30;;;;;;5152464;27;20372;-68
2021/12/31 01:06:35;;;;;;;2.70;2.50;;;22.90;35.30;;;;;;5148086;27;20317;-68
2021/12/31 01:09:03;;;;;;;3.55;2.83;;;22.90;35.30;;;;;;5152151;27;20115;-68
2021/12/31 01:11:31;;;;;;;3.38;3.08;;;22.90;35.30;;;;;;5147546;27;20083;-67
2021/12/31 01:14:02;;;;;;;3.20;2.90;;;22.90;35.30;;;;;;5151956;27;20546;-68
2021/12/31 01:16:39;;;;;;;3.30;3.00;;;22.90;35.30;;;;;;5129562;27;20050;-68
2021/12/31 01:19:45;;;;;;;3.60;3.30;;;22.90;35.40;;;;;;5151931;27;20039;-68
2021/12/31 01:25:34;;;;;;;4.30;3.42;;;22.90;35.30;;;;;;5150034;27;20123;-67
2021/12/31 01:28:02;;;;;;;3.40;2.88;;;22.90;35.40;;;;;;5149588;27;20498;-68
2021/12/31 01:30:29;;;;;;;3.30;3.00;;;22.90;35.30;;;;;;5149864;27;20141;-68
2021/12/31 01:32:59;;;;;;;3.15;2.95;;;22.90;35.30;;;;;;5148503;27;20141;-67
2021/12/31 01:35:27;;;;;;;2.88;2.67;;;22.80;35.30;;;;;;5149732;27;20085;-67
2021/12/31 01:37:54;;;;;;;3.20;2.95;;;22.80;35.30;;;;;;5149250;27;20046;-68
2021/12/31 01:40:21;;;;;;;3.83;3.42;;;22.80;35.30;;;;;;5149547;27;20047;-69
2021/12/31 01:42:48;;;;;;;2.63;2.42;;;22.80;35.30;;;;;;5148514;27;20505;-68
2021/12/31 01:45:19;;;;;;;4.05;3.22;;;22.90;35.40;;;;;;5149563;27;20194;-68
2021/12/31 01:51:39;;;;;;;3.13;2.83;;;22.80;35.30;;;;;;5147352;27;20038;-68
2021/12/31 01:54:06;;;;;;;2.92;2.72;;;22.80;35.30;;;;;;5151601;27;20185;-67
2021/12/31 01:56:34;;;;;;;3.33;2.95;;;22.90;35.40;;;;;;5129056;27;20147;-68
2021/12/31 01:59:02;;;;;;;2.67;2.35;;;22.80;35.30;;;;;;5151346;27;20203;-67
2021/12/31 02:01:30;;;;;;;4.20;3.20;;;22.80;35.30;;;;;;5148077;27;20457;-67
2021/12/31 02:03:59;;;;;;;3.38;3.08;;;22.80;35.30;;;;;;5150727;27;20207;-68
2021/12/31 02:06:26;;;;;;;3.60;3.30;;;22.90;35.40;;;;;;5129792;27;20046;-68
2021/12/31 02:08:53;;;;;;;2.83;2.63;;;22.90;35.40;;;;;;5150314;27;20051;-68
2021/12/31 02:11:20;;;;;;;2.67;2.47;;;22.80;35.30;;;;;;5146858;27;20127;-68
2021/12/31 02:14:12;;;;;;;3.13;2.85;;;22.80;35.30;;;;;;5150210;27;20078;-68
2021/12/31 02:16:39;;;;;;;2.97;2.70;;;22.80;35.30;;;;;;5147108;27;20043;-68
2021/12/31 02:19:15;;;;;;;3.10;2.80;;;22.90;35.40;;;;;;5150983;27;20080;-68
2021/12/31 02:21:43;;;;;;;2.88;2.67;;;22.80;35.30;;;;;;5146976;27;20074;-68
2021/12/31 02:24:13;;;;;;;2.95;2.65;;;22.80;35.30;;;;;;5150912;27;20514;-67
2021/12/31 02:26:40;;;;;;;2.67;2.47;;;22.80;35.90;;;;;;5122592;28;20074;-68
2021/12/31 02:29:08;;;;;;;2.88;2.67;;;22.80;35.30;;;;;;5130067;28;20134;-67
2021/12/31 02:31:35;;;;;;;2.70;2.50;;;22.80;35.30;;;;;;5126025;28;20043;-68
2021/12/31 02:34:02;;;;;;;2.83;2.58;;;22.80;35.30;;;;;;5130191;28;20429;-67
2021/12/31 02:36:29;;;;;;;3.05;2.78;;;22.80;35.30;;;;;;5108196;28;20051;-68
2021/12/31 02:38:56;;;;;;;3.33;3.03;;;22.80;35.30;;;;;;5129522;28;20228;-68
2021/12/31 02:41:24;;;;;;;2.80;2.60;;;22.80;35.30;;;;;;5125900;28;20081;-68
2021/12/31 02:43:51;;;;;;;2.40;2.20;;;22.80;35.90;;;;;;5111065;28;20082;-68
2021/12/31 02:46:18;;;;;;;3.20;2.90;;;22.80;35.40;;;;;;5126034;28;20600;-68
2021/12/31 02:48:54;;;;;;;3.25;2.95;;;22.80;35.40;;;;;;5129561;28;20096;-68
2021/12/31 02:51:23;;;;;;;2.92;2.65;;;22.80;35.40;;;;;;5126571;28;20039;-68
2021/12/31 02:53:54;;;;;;;3.40;2.92;;;22.80;35.40;;;;;;5129498;28;20047;-68
2021/12/31 02:56:24;;;;;;;3.33;3.03;;;22.80;35.40;;;;;;5128364;27;20047;-68
2021/12/31 02:58:52;;;;;;;2.53;2.33;;;22.70;35.40;;;;;;5133123;27;20084;-67
2021/12/31 03:01:19;;;;;;;3.75;3.33;;;22.70;35.40;;;;;;5130854;27;20096;-67
2021/12/31 03:03:49;;;;;;;2.70;2.47;;;22.70;35.40;;;;;;5133122;27;20077;-67
2021/12/31 03:06:17;;;;;;;2.70;2.30;;;22.80;35.40;;;;;;5130276;27;20100;-67
2021/12/31 03:08:47;;;;;;;2.97;2.67;;;22.80;36.00;;;;;;5133199;27;20047;-68
2021/12/31 03:11:18;;;;;;;2.88;2.67;;;22.80;35.40;;;;;;5129966;27;20047;-68
2021/12/31 03:13:51;;;;;;;2.78;2.55;;;22.80;35.50;;;;;;5132845;27;20043;-67
2021/12/31 03:16:22;;;;;;;3.13;2.83;;;22.80;35.40;;;;;;5130157;27;20091;-68
2021/12/31 03:18:51;;;;;;;2.75;2.55;;;22.70;36.00;;;;;;5132619;27;20082;-68
2021/12/31 03:21:22;;;;;;;2.35;2.17;;;22.80;35.40;;;;;;5130378;27;20298;-68
2021/12/31 03:23:52;;;;;;;2.90;2.70;;;22.70;35.40;;;;;;5132718;27;20138;-68
2021/12/31 03:26:20;;;;;;;2.85;2.65;;;22.70;35.40;;;;;;5129827;27;20046;-68
2021/12/31 03:28:48;;;;;;;3.13;2.83;;;22.70;35.40;;;;;;5132520;27;20084;-68
2021/12/31 03:31:16;;;;;;;2.88;2.58;;;22.70;35.40;;;;;;5130552;27;20070;-68
2021/12/31 03:33:43;;;;;;;2.88;2.58;;;22.70;35.40;;;;;;5132595;27;20103;-68
2021/12/31 03:36:11;;;;;;;2.50;2.30;;;22.70;35.40;;;;;;5130067;27;20043;-67
2021/12/31 03:38:38;;;;;;;2.85;2.65;;;22.70;35.50;;;;;;5132141;27;20047;-70
2021/12/31 03:41:05;;;;;;;2.33;2.20;;;22.70;35.40;;;;;;5130025;27;20039;-67
2021/12/31 03:43:32;;;;;;;2.90;2.70;;;22.70;35.40;;;;;;5131969;27;20242;-67
2021/12/31 03:46:00;;;;;;;2.70;2.50;;;22.70;35.40;;;;;;5111383;27;20709;-67
2021/12/31 03:49:12;;;;;;;2.20;2.00;;;22.70;35.50;;;;;;5131697;27;20147;-67
2021/12/31 03:51:39;;;;;;;3.00;2.70;;;22.70;35.40;;;;;;5128754;27;20081;-68
2021/12/31 03:54:06;;;;;;;3.20;2.33;;;22.70;35.40;;;;;;5133012;27;20043;-68
2021/12/31 03:56:34;;;;;;;2.75;2.55;;;22.70;35.40;;;;;;5129443;27;20382;-68
2021/12/31 03:59:01;;;;;;;2.38;2.17;;;22.70;35.40;;;;;;5132383;27;20431;-67
2021/12/31 04:01:29;;;;;;;2.33;2.13;;;22.70;35.40;;;;;;5129254;27;20088;-68
2021/12/31 04:03:56;;;;;;;2.75;2.55;;;22.70;35.50;;;;;;5132210;27;20043;-68
2021/12/31 04:06:23;;;;;;;3.05;2.55;;;22.70;35.50;;;;;;5129179;27;20559;-68
2021/12/31 04:08:51;;;;;;;2.47;2.28;;;22.70;35.40;;;;;;5132148;27;20570;-68
2021/12/31 04:11:19;;;;;;;3.10;2.80;;;22.70;35.40;;;;;;5128645;27;20111;-67
2021/12/31 04:16:51;;;;;;;2.50;2.30;;;22.70;35.40;;;;;;5128218;27;20084;-67
2021/12/31 04:19:18;;;;;;;3.13;2.38;;;22.70;35.40;;;;;;5132463;27;20043;-67
2021/12/31 04:21:48;;;;;;;2.95;2.65;;;22.70;35.40;;;;;;5128265;27;20402;-71
2021/12/31 04:24:28;;;;;;;2.60;2.40;;;22.70;35.50;;;;;;5132230;27;20074;-68
2021/12/31 04:26:58;;;;;;;2.30;2.10;;;22.70;35.50;;;;;;5128683;27;20469;-67
2021/12/31 04:29:25;;;;;;;2.90;2.65;;;22.60;35.40;;;;;;5113868;27;20134;-68
2021/12/31 04:31:52;;;;;;;2.88;2.53;;;22.70;35.50;;;;;;5128658;27;20089;-67
2021/12/31 04:34:19;;;;;;;2.47;2.28;;;22.60;35.40;;;;;;5131822;27;20040;-68
2021/12/31 04:36:47;;;;;;;2.33;2.13;;;22.70;35.50;;;;;;5128150;27;20051;-67
2021/12/31 04:39:14;;;;;;;2.70;2.50;;;22.60;35.40;;;;;;5131848;27;20144;-68
2021/12/31 04:41:41;;;;;;;2.38;2.17;;;22.60;35.40;;;;;;5127148;27;20137;-67
2021/12/31 04:44:08;;;;;;;2.83;2.55;;;22.60;35.50;;;;;;5132415;27;20509;-67
2021/12/31 04:46:35;;;;;;;2.85;2.55;;;22.60;35.50;;;;;;5126577;27;20296;-67
2021/12/31 04:49:03;;;;;;;2.47;2.28;;;22.60;35.50;;;;;;5113959;27;20534;-67
2021/12/31 04:51:30;;;;;;;3.03;2.40;;;22.60;35.50;;;;;;5126974;27;20074;-68
2021/12/31 04:53:57;;;;;;;2.65;2.45;;;22.60;35.50;;;;;;5131813;27;20146;-68
2021/12/31 04:56:24;;;;;;;2.55;2.35;;;22.60;35.50;;;;;;5128088;27;20236;-68
2021/12/31 05:01:56;;;;;;;2.10;1.90;;;22.60;35.50;;;;;;5127970;27;20156;-67
2021/12/31 05:04:23;;;;;;;2.38;2.17;;;22.60;35.50;;;;;;5130942;27;20364;-69
2021/12/31 05:06:51;;;;;;;2.40;2.20;;;22.60;36.10;;;;;;5127025;27;20484;-68
2021/12/31 05:09:18;;;;;;;2.80;2.40;;;22.60;35.50;;;;;;5131138;27;20105;-68
2021/12/31 05:11:45;;;;;;;2.20;2.05;;;22.60;35.50;;;;;;5126205;27;20165;-68
2021/12/31 05:14:12;;;;;;;2.40;2.20;;;22.60;35.50;;;;;;5131425;27;20564;-68
2021/12/31 05:16:39;;;;;;;2.60;2.40;;;22.50;35.50;;;;;;5108941;27;20122;-68
2021/12/31 05:19:07;;;;;;;1.83;1.73;;;22.50;35.50;;;;;;5130835;27;20082;-68
2021/12/31 05:21:34;;;;;;;2.47;2.28;;;22.50;35.50;;;;;;5126809;27;20129;-68
2021/12/31 05:24:14;;;;;;;2.22;2.03;;;22.50;35.50;;;;;;5130997;27;20315;-68
2021/12/31 05:26:43;;;;;;;2.70;2.40;;;22.50;35.50;;;;;;5126993;27;20064;-68
2021/12/31 05:29:10;;;;;;;2.25;2.15;;;22.50;35.50;;;;;;5131333;27;20066;-68
2021/12/31 05:31:37;;;;;;;2.28;2.17;;;22.50;35.50;;;;;;5126451;27;20043;-68
2021/12/31 05:34:05;;;;;;;2.45;2.20;;;22.50;35.50;;;;;;5131139;27;20443;-68
2021/12/31 05:36:32;;;;;;;2.78;2.50;;;22.50;35.50;;;;;;5126485;27;20043;-68
2021/12/31 05:39:00;;;;;;;2.50;2.30;;;22.50;35.50;;;;;;5130664;27;20085;-69
2021/12/31 05:41:28;;;;;;;2.35;2.17;;;22.50;35.50;;;;;;5126397;27;20454;-68
2021/12/31 05:43:56;;;;;;;2.42;2.30;;;22.50;35.50;;;;;;5130265;27;20082;-68
2021/12/31 05:46:23;;;;;;;2.83;2.60;;;22.50;36.10;;;;;;5126528;27;20036;-66
2021/12/31 05:48:50;;;;;;;2.25;2.15;;;22.50;35.50;;;;;;5130504;27;20047;-67
2021/12/31 05:51:17;;;;;;;2.40;2.00;;;22.50;35.50;;;;;;5123991;27;20130;-67
2021/12/31 05:53:44;;;;;;;2.50;2.28;;;22.50;35.50;;;;;;5091100;28;20074;-67
2021/12/31 05:56:11;;;;;;;2.05;1.95;;;22.60;35.50;;;;;;5109813;27;20044;-67
2021/12/31 06:01:45;;;;;;;2.25;2.05;;;22.50;35.50;;;;;;5111324;27;20585;-67
2021/12/31 06:04:14;;;;;;;2.33;2.13;;;22.50;35.50;;;;;;5109720;28;20052;-67
2021/12/31 06:06:42;;;;;;;2.65;2.17;;;22.50;35.50;;;;;;5122281;27;20074;-67
2021/12/31 06:09:11;;;;;;;2.28;2.15;;;22.50;35.30;;;;;;5110104;28;20130;-67
2021/12/31 06:11:40;;;;;;;2.60;2.40;;;22.50;35.20;;;;;;5111590;27;20557;-67
2021/12/31 06:14:09;;;;;;;3.05;2.42;;;22.50;35.20;;;;;;5109745;28;20069;-66
2021/12/31 06:16:42;;;;;;;2.13;2.00;;;22.50;35.10;;;;;;5109250;28;20257;-66
2021/12/31 06:19:11;;;;;;;2.38;2.17;;;22.50;35.00;;;;;;5110912;27;20047;-68
2021/12/31 06:21:40;;;;;;;6.45;2.75;;;22.50;35.00;;;;;;5117725;27;20047;-72
2021/12/31 06:24:08;;;;;;;2.53;2.33;;;22.50;35.20;;;;;;5110759;28;20158;-71
2021/12/31 06:26:36;;;;;;;2.83;2.63;;;22.50;35.40;;;;;;5112277;28;20096;-73
2021/12/31 06:29:04;;;;;;;2.88;2.67;;;22.50;35.50;;;;;;5148201;27;20157;-66
2021/12/31 06:31:31;;;;;;;2.40;2.20;;;22.50;35.70;;;;;;5119911;27;20125;-73
2021/12/31 06:33:58;;;;;;;2.65;2.45;;;22.50;35.90;;;;;;5115232;27;20079;-72
2021/12/31 06:36:25;;;;;;;2.83;2.40;;;22.50;36.00;;;;;;5112855;28;20048;-71
2021/12/31 06:38:53;;;;;;;2.40;2.20;;;22.50;36.00;;;;;;5113763;28;20120;-74
2021/12/31 06:41:20;;;;;;;2.53;2.33;;;22.60;36.30;;;;;;5118540;27;20046;-71
2021/12/31 06:43:48;;;;;;;3.17;2.95;;;22.60;36.10;;;;;;5131696;27;20066;-69
2021/12/31 06:46:15;;;;;;;2.97;2.78;;;22.60;35.90;;;;;;5115490;27;20043;-69
2021/12/31 06:48:42;;;;;;;2.90;2.70;;;22.60;35.70;;;;;;5116226;27;20419;-69
2021/12/31 06:51:10;;;;;;;3.03;2.72;;;22.60;35.50;;;;;;5116326;27;20097;-69
2021/12/31 06:53:39;;;;;;;2.95;2.75;;;22.70;35.50;;;;;;5132319;27;20520;-70
2021/12/31 06:56:06;;;;;;;3.55;3.05;;;22.70;35.30;;;;;;5134776;27;20129;-70
2021/12/31 06:58:34;;;;;;;3.13;2.83;;;22.70;35.20;;;;;;5132727;27;20055;-73
2021/12/31 07:01:01;;;;;;;3.90;3.38;;;22.70;35.10;;;;;;5116031;27;20086;-73
2021/12/31 07:03:28;;;;;;;3.28;3.08;;;22.70;35.10;;;;;;5116050;27;20395;-72
2021/12/31 07:05:55;;;;;;;2.97;2.75;;;22.80;34.90;;;;;;5113497;28;20471;-69
2021/12/31 07:08:24;;;;;;;4.15;3.17;;;22.80;34.80;;;;;;5111401;28;20047;-69
2021/12/31 07:10:51;;;;;;;2.85;2.50;;;22.90;34.80;;;;;;5112987;28;20071;-70
2021/12/31 07:13:19;;;;;;;3.30;3.00;;;23.00;34.70;;;;;;5103951;27;20051;-71
2021/12/31 07:15:49;;;;;;;3.10;2.90;;;23.00;34.60;;;;;;5126810;27;20100;-69
2021/12/31 07:18:18;;;;;;;3.47;3.17;;;23.10;34.60;;;;;;5127635;27;20576;-71
2021/12/31 07:20:46;;;;;;;3.40;2.90;;;23.20;34.50;;;;;;5126731;27;20055;-70
2021/12/31 07:23:15;;;;;;;3.20;2.90;;;23.20;34.40;;;;;;5127891;27;20074;-68
2021/12/31 07:25:43;;;;;;;4.33;3.43;;;23.30;34.30;;;;;;5129020;27;20491;-69
2021/12/31 07:28:12;;;;;;;4.85;3.60;;;23.30;34.30;;;;;;5124337;27;20371;-71
2021/12/31 07:30:41;;;;;;;3.45;3.15;;;23.40;34.20;;;;;;5134470;27;20073;-72
2021/12/31 07:33:21;;;;;;;3.75;3.40;;;23.40;34.10;;;;;;5126071;27;20130;-73
2021/12/31 07:35:50;;;;;;;3.25;2.95;;;23.50;34.00;;;;;;5113147;27;20491;-72
2021/12/31 07:38:21;;;;;;;3.17;2.95;;;23.60;33.90;;;;;;5125483;27;20378;-70
2021/12/31 07:40:50;;;;;;;2.85;2.65;;;23.60;33.80;;;;;;5125168;27;20051;-69
2021/12/31 07:43:18;;;;;;;3.30;3.00;;;23.70;33.80;;;;;;5125837;27;20514;-71
2021/12/31 07:45:45;;;;;;;3.42;3.13;;;23.70;33.70;;;;;;5133122;27;20466;-69
2021/12/31 07:48:12;;;;;;;3.40;3.10;;;23.80;33.50;;;;;;5123732;27;20075;-67
2021/12/31 07:50:40;;;;;;;4.15;3.78;;;23.80;33.40;;;;;;5126976;27;20043;-70
2021/12/31 07:53:07;;;;;;;3.38;3.08;;;23.90;33.30;;;;;;5123077;27;20150;-68
2021/12/31 07:55:35;;;;;;;3.65;3.33;;;23.90;33.30;;;;;;5110111;27;20497;-66
2021/12/31 07:58:03;;;;;;;3.03;2.80;;;24.00;33.30;;;;;;5130042;27;20043;-67
2021/12/31 08:00:30;;;;;;;3.35;3.05;;;24.00;33.10;;;;;;5128980;27;20039;-70
2021/12/31 08:02:58;;;;;;;3.08;2.80;;;24.00;33.00;;;;;;5124899;27;20051;-68
2021/12/31 08:05:27;;;;;;;3.22;3.03;;;24.00;32.90;;;;;;5128754;27;20078;-66
2021/12/31 08:07:55;;;;;;;3.10;2.90;;;24.00;32.90;;;;;;5131628;27;20626;-66
2021/12/31 08:10:22;;;;;;;3.38;3.05;;;24.00;32.90;;;;;;5149173;27;20085;-66
2021/12/31 08:13:11;;;;;;;4.30;3.10;;;24.00;32.90;;;;;;5121785;27;20065;-69
2021/12/31 08:15:39;;;;;;;3.10;2.80;;;24.10;32.90;;;;;;5123283;27;20552;-67
2021/12/31 08:18:06;;;;;;;3.55;3.25;;;24.10;33.00;;;;;;5128601;27;20164;-67
2021/12/31 08:20:35;;;;;;;3.58;3.28;;;24.10;33.10;;;;;;5127485;27;20046;-67
2021/12/31 08:23:09;;;;;;;3.97;3.58;;;24.20;33.10;;;;;;5136805;27;20081;-65
2021/12/31 08:25:37;;;;;;;3.50;3.20;;;24.20;33.10;;;;;;5125430;27;20672;-68
2021/12/31 08:28:04;;;;;;;4.40;3.28;;;24.30;33.30;;;;;;5128672;27;20039;-68
2021/12/31 08:30:32;;;;;;;3.97;3.60;;;24.40;33.10;;;;;;5111873;27;20626;-68
2021/12/31 08:32:59;;;;;;;3.67;3.38;;;24.40;33.00;;;;;;5128328;27;20126;-67
2021/12/31 08:35:26;;;;;;;3.63;3.33;;;24.40;32.90;;;;;;5125671;27;20043;-69
2021/12/31 08:37:54;;;;;;;3.58;3.28;;;24.50;32.90;;;;;;5129162;27;20177;-68
2021/12/31 08:40:21;;;;;;;3.55;3.13;;;24.50;32.80;;;;;;5111039;27;20093;-68
2021/12/31 08:42:48;;;;;;;3.70;3.30;;;24.50;32.70;;;;;;5123151;27;20082;-68
2021/12/31 08:45:18;;;;;;;3.55;3.25;;;24.60;32.70;;;;;;5113107;27;20126;-74
2021/12/31 08:51:40;;;;;;;5.85;3.63;;;24.70;32.60;;;;;;5126092;27;20454;-71
2021/12/31 08:54:07;;;;;;;3.53;3.22;;;24.80;32.60;;;;;;5126080;27;20067;-67
2021/12/31 08:56:34;;;;;;;4.45;4.05;;;24.80;32.60;;;;;;5126603;27;20046;-75
2021/12/31 08:59:03;;;;;;;7.40;3.72;;;24.90;32.50;;;;;;5113591;27;20078;-74
2021/12/31 09:01:31;;;;;;;3.67;3.40;;;24.90;32.50;;;;;;5127283;27;20966;-66
2021/12/31 09:03:58;;;;;;;4.07;3.67;;;25.00;32.60;;;;;;5128881;27;20457;-68
2021/12/31 09:06:25;;;;;;;3.78;3.47;;;25.00;32.70;;;;;;5126532;27;20138;-70
2021/12/31 09:08:52;;;;;;;3.83;3.47;;;25.10;32.70;;;;;;5127360;27;20445;-70
2021/12/31 09:11:19;;;;;;;3.85;3.50;;;25.10;32.70;;;;;;5125009;27;20139;-69
2021/12/31 09:13:47;;;;;;;4.10;3.47;;;25.20;32.70;;;;;;5127415;27;20125;-69
2021/12/31 09:16:15;;;;;;;4.45;4.05;;;25.20;32.60;;;;;;5123936;27;20500;-70
2021/12/31 09:18:42;;;;;;;4.15;3.70;;;25.20;32.50;;;;;;5127980;27;20045;-69
2021/12/31 09:21:10;;;;;;;4.57;3.72;;;25.20;32.50;;;;;;5099850;27;20047;-69
2021/12/31 09:23:37;;;;;;;3.65;3.35;;;25.20;32.50;;;;;;5128450;27;20039;-69
2021/12/31 09:26:05;;;;;;;4.78;3.50;;;25.20;32.50;;;;;;5122291;27;20085;-69
2021/12/31 09:28:32;;;;;;;3.92;3.60;;;25.10;32.50;;;;;;5126593;27;20104;-70
2021/12/31 09:31:07;;;;;;;5.32;3.90;;;25.10;32.50;;;;;;5122751;27;20419;-69
2021/12/31 09:33:35;;;;;;;3.88;3.58;;;25.10;32.60;;;;;;5127169;27;20039;-70
2021/12/31 09:36:03;;;;;;;3.65;3.35;;;25.10;32.60;;;;;;5105954;27;20426;-69
2021/12/31 09:38:30;;;;;;;4.28;3.88;;;25.10;32.70;;;;;;5126670;27;20511;-69
2021/12/31 09:40:57;;;;;;;3.88;3.47;;;25.10;32.80;;;;;;5120622;27;20104;-70
2021/12/31 09:43:24;;;;;;;3.83;3.47;;;25.00;32.80;;;;;;5124794;27;20404;-69
2021/12/31 09:45:53;;;;;;;4.97;3.47;;;25.00;32.80;;;;;;5103876;27;20211;-69
2021/12/31 09:51:58;;;;;;;4.30;3.90;;;25.00;33.00;;;;;;5122759;27;20047;-72
2021/12/31 09:54:25;;;;;;;3.50;3.20;;;25.00;33.20;;;;;;5114086;27;20059;-72
2021/12/31 09:56:53;;;;;;;5.20;4.07;;;24.90;33.40;;;;;;5118451;27;20043;-71
2021/12/31 09:59:24;;;;;;;3.72;3.42;;;25.00;33.50;;;;;;5120589;27;20072;-70
2021/12/31 10:01:52;;;;;;;4.18;3.40;;;25.00;33.60;;;;;;5124959;27;20711;-72
2021/12/31 10:04:20;;;;;;;4.60;3.63;;;25.00;33.60;;;;;;5128997;27;20043;-71
2021/12/31 10:07:08;;;;;;;4.00;3.60;;;25.00;33.60;;;;;;5127124;27;20130;-72
2021/12/31 10:09:38;;;;;;;4.65;3.67;;;25.00;33.60;;;;;;5129237;27;20039;-75
2021/12/31 10:12:12;;;;;;;4.45;4.05;;;25.00;33.70;;;;;;5126597;27;20046;-66
2021/12/31 10:14:40;;;;;;;3.95;3.60;;;25.00;34.30;;;;;;5110963;27;20518;-70
2021/12/31 10:17:09;;;;;;;3.28;2.97;;;25.00;33.80;;;;;;5127102;27;20057;-73
2021/12/31 10:19:36;;;;;;;3.20;2.95;;;25.00;33.80;;;;;;5131162;27;20051;-76
2021/12/31 10:22:04;;;;;;;4.70;3.50;;;25.00;33.80;;;;;;5131246;27;20081;-73
2021/12/31 10:24:37;;;;;;;3.47;2.92;;;25.00;33.90;;;;;;5112793;28;20101;-75
2021/12/31 10:27:19;;;;;;;3.45;3.15;;;25.10;33.90;;;;;;5129715;28;20051;-74
2021/12/31 10:30:03;;;;;;;3.80;3.50;;;25.00;33.90;;;;;;5113937;28;20043;-69
2021/12/31 10:36:35;;;;;;;3.40;3.10;;;25.10;33.90;;;;;;5127418;28;20038;-73
2021/12/31 10:39:19;;;;;;;3.63;3.33;;;25.10;33.90;;;;;;5109457;28;20453;-71
2021/12/31 10:41:52;;;;;;;5.85;3.20;;;25.10;33.90;;;;;;5111993;28;20047;-75
2021/12/31 10:44:19;;;;;;;4.35;3.80;;;25.10;34.00;;;;;;5109016;28;20539;-69
2021/12/31 10:46:46;;;;;;;3.53;3.08;;;25.10;34.10;;;;;;5109311;28;20459;-65
2021/12/31 10:49:13;;;;;;;3.40;3.10;;;25.10;34.20;;;;;;5121115;28;20345;-71
2021/12/31 10:51:44;;;;;;;3.50;3.20;;;25.10;34.10;;;;;;5119662;27;20496;-73
2021/12/31 10:54:46;;;;;;;3.80;3.50;;;25.10;34.70;;;;;;5123857;28;20051;-69
2021/12/31 10:57:37;;;;;;;6.50;3.40;;;25.10;34.00;;;;;;5131632;27;20071;-73
2021/12/31 11:00:06;;;;;;;3.78;3.40;;;25.10;34.10;;;;;;5136403;27;20066;-70
2021/12/31 11:02:35;;;;;;;4.70;3.72;;;25.10;34.00;;;;;;5120904;28;20043;-68
2021/12/31 11:05:04;;;;;;;2.92;2.72;;;25.10;33.90;;;;;;5125436;28;20043;-67
2021/12/31 11:07:31;;;;;;;4.25;3.17;;;25.10;33.80;;;;;;5125842;28;20109;-67
2021/12/31 11:10:24;;;;;;;3.83;3.15;;;25.10;33.80;;;;;;5126275;28;20518;-67
2021/12/31 11:12:53;;;;;;;4.05;3.45;;;25.10;33.70;;;;;;5114251;28;20039;-70
2021/12/31 11:15:20;;;;;;;3.58;3.22;;;25.10;34.30;;;;;;5124991;28;20567;-72
2021/12/31 11:17:52;;;;;;;3.38;3.08;;;25.10;33.70;;;;;;5109847;27;20071;-72
2021/12/31 11:20:24;;;;;;;5.03;3.05;;;25.10;33.60;;;;;;5129693;27;20135;-73
2021/12/31 11:22:52;;;;;;;3.25;2.95;;;25.10;33.70;;;;;;5112232;27;20039;-72
2021/12/31 11:25:59;;;;;;;3.63;3.33;;;25.10;33.70;;;;;;5109038;28;20043;-74
2021/12/31 11:28:32;;;;;;;3.30;2.78;;;25.10;34.20;;;;;;5109089;28;20043;-71
2021/12/31 11:31:21;;;;;;;4.50;3.35;;;25.10;33.60;;;;;;5119855;27;20116;-67
2021/12/31 11:34:13;;;;;;;3.85;3.22;;;25.10;33.60;;;;;;5122061;27;20046;-67
2021/12/31 11:36:51;;;;;;;4.25;3.67;;;25.10;33.60;;;;;;5094487;28;20146;-71
2021/12/31 11:39:29;;;;;;;3.85;3.35;;;25.10;33.60;;;;;;5109017;28;20083;-71
2021/12/31 11:42:05;;;;;;;3.83;3.40;;;25.10;33.60;;;;;;5109015;27;20491;-73
2021/12/31 11:44:34;;;;;;;4.05;3.03;;;25.10;33.70;;;;;;5118084;27;20079;-71
2021/12/31 11:47:11;;;;;;;3.40;3.10;;;25.10;33.80;;;;;;5109131;28;20047;-71
2021/12/31 11:49:39;;;;;;;3.22;2.88;;;25.10;33.80;;;;;;5123679;27;20070;-71
2021/12/31 11:52:09;;;;;;;3.72;3.05;;;25.10;33.80;;;;;;5117045;27;20339;-72
2021/12/31 11:54:38;;;;;;;3.55;2.95;;;25.10;33.80;;;;;;5127524;27;20081;-72
2021/12/31 11:57:09;;;;;;;3.17;2.90;;;25.10;33.70;;;;;;5128374;27;20335;-71
2021/12/31 11:59:42;;;;;;;5.20;3.35;;;25.20;33.80;;;;;;5126459;27;20615;-72
2021/12/31 12:02:16;;;;;;;3.60;3.22;;;25.20;33.80;;;;;;5115991;27;20066;-71
2021/12/31 12:05:08;;;;;;;3.70;3.15;;;25.20;33.80;;;;;;5109721;27;20050;-71
2021/12/31 12:07:47;;;;;;;3.75;3.30;;;25.20;33.80;;;;;;5117386;27;20067;-71
2021/12/31 12:10:19;;;;;;;2.80;2.55;;;25.20;33.80;;;;;;5122922;27;20081;-71
2021/12/31 12:12:50;;;;;;;3.40;3.10;;;25.20;33.80;;;;;;5129064;27;20047;-72
2021/12/31 12:15:23;;;;;;;;;;;25.20;33.80;;;;;;5129169;27;20096;-71
2021/12/31 12:17:50;;;;;;;2.95;2.70;;;25.20;33.80;;;;;;5128347;27;19919;-72
2021/12/31 12:20:19;;;;;;;3.50;3.20;;;25.20;33.90;;;;;;5128517;27;20135;-72
2021/12/31 12:22:54;;;;;;;2.92;2.72;;;25.20;33.90;;;;;;5128594;27;20071;-72
2021/12/31 12:25:27;;;;;;;3.38;2.95;;;25.20;33.90;;;;;;5128563;27;20285;-71
2021/12/31 12:28:06;;;;;;;2.90;2.70;;;25.20;33.90;;;;;;5128423;27;20507;-72
2021/12/31 12:30:36;;;;;;;2.90;2.70;;;25.20;33.90;;;;;;5128498;27;20480;-72
2021/12/31 12:33:16;;;;;;;2.97;2.60;;;25.20;34.00;;;;;;5128385;27;20035;-72
2021/12/31 12:35:48;;;;;;;4.20;3.40;;;25.20;34.00;;;;;;5128641;27;20054;-72
2021/12/31 12:38:26;;;;;;;3.33;3.03;;;25.20;34.00;;;;;;5128708;27;20035;-72
2021/12/31 12:40:59;;;;;;;3.50;3.08;;;25.20;34.00;;;;;;5128466;27;20054;-72
2021/12/31 12:43:35;;;;;;;2.90;2.67;;;25.20;34.00;;;;;;5128989;27;20209;-71
2021/12/31 12:46:10;;;;;;;4.47;3.17;;;25.20;33.90;;;;;;5128469;27;20047;-72
2021/12/31 12:48:49;;;;;;;2.67;2.47;;;25.20;33.90;;;;;;5128449;27;20096;-71
2021/12/31 12:51:25;;;;;;;2.75;2.40;;;25.20;33.90;;;;;;5127890;27;20407;-72
2021/12/31 12:53:52;;;;;;;3.38;2.88;;;25.20;33.80;;;;;;5127985;27;20126;-72
2021/12/31 12:56:23;;;;;;;5.03;2.50;;;25.30;33.90;;;;;;5128012;27;20492;-72
2021/12/31 12:59:00;;;;;;;3.50;2.83;;;25.30;33.90;;;;;;5128131;27;20337;-72
2021/12/31 13:01:37;;;;;;;3.03;2.83;;;25.30;33.80;;;;;;5127937;27;20372;-71
2021/12/31 13:04:06;;;;;;;4.13;3.53;;;25.30;33.90;;;;;;5127920;27;20219;-72
2021/12/31 13:06:34;;;;;;;3.22;2.92;;;25.30;33.80;;;;;;5128018;27;20527;-72
2021/12/31 13:09:05;;;;;;;2.85;2.65;;;25.30;33.80;;;;;;5127475;27;20306;-72
2021/12/31 13:11:34;;;;;;;3.00;2.70;;;25.30;33.80;;;;;;5127684;27;20450;-72
2021/12/31 13:14:02;;;;;;;2.65;2.45;;;25.30;33.80;;;;;;5127677;27;20116;-71
2021/12/31 13:16:29;;;;;;;3.30;3.00;;;25.20;33.70;;;;;;5127399;27;20625;-72
2021/12/31 13:19:02;;;;;;;2.55;2.35;;;25.30;33.80;;;;;;5109902;27;20697;-72
2021/12/31 13:21:30;;;;;;;3.28;2.83;;;25.30;33.80;;;;;;5127336;27;20104;-71
2021/12/31 13:23:57;;;;;;;2.38;2.17;;;25.30;33.80;;;;;;5127731;27;20074;-71
2021/12/31 13:26:30;;;;;;;3.15;2.90;;;25.30;33.80;;;;;;5126875;27;20093;-72
2021/12/31 13:28:59;;;;;;;3.20;3.00;;;25.30;33.80;;;;;;5127553;27;20131;-70
2021/12/31 13:31:36;;;;;;;2.92;2.72;;;25.30;33.80;;;;;;5127432;27;20183;-70
2021/12/31 13:34:18;;;;;;;3.45;3.15;;;25.30;33.80;;;;;;5127511;27;20433;-70
2021/12/31 13:36:49;;;;;;;2.92;2.70;;;25.30;33.80;;;;;;5127599;27;20071;-71
2021/12/31 13:39:39;;;;;;;2.67;2.47;;;25.20;33.70;;;;;;5126203;27;20507;-71
2021/12/31 13:42:12;;;;;;;3.30;3.00;;;25.30;33.80;;;;;;5127792;27;20096;-70